createdAt,value
2023-05-15T00:00:10.875Z,53.24
2023-05-15T00:03:32.880Z,53.47
2023-05-15T00:06:54.691Z,54.05
2023-05-15T00:10:17.884Z,54.90
2023-05-15T00:13:39.795Z,53.74
2023-05-15T00:17:01.616Z,54.67
2023-05-15T00:20:23.444Z,54.54
2023-05-15T00:23:45.047Z,54.63
2023-05-15T00:27:08.477Z,54.42
2023-05-15T00:30:30.500Z,54.81
2023-05-15T00:33:52.152Z,54.66
2023-05-15T00:37:13.778Z,54.77
2023-05-15T00:40:37.398Z,55.09
2023-05-15T00:44:02.003Z,55.73
2023-05-15T00:47:25.262Z,55.45
2023-05-15T00:50:46.936Z,56.27
2023-05-15T00:54:09.162Z,56.23
2023-05-15T00:57:32.740Z,56.09
2023-05-15T01:00:56.354Z,55.85
2023-05-15T01:04:18.414Z,56.79
2023-05-15T01:07:49.553Z,56.94
2023-05-15T01:11:13.027Z,56.65
2023-05-15T01:14:34.678Z,57.73
2023-05-15T01:17:58.010Z,57.34
2023-05-15T01:21:42.095Z,59.18
2023-05-15T01:25:37.272Z,59.92
2023-05-15T01:29:06.205Z,58.84
2023-05-15T01:32:34.539Z,58.84
2023-05-15T01:36:00.997Z,58.21
2023-05-15T01:39:29.113Z,59.11
2023-05-15T01:42:55.285Z,59.98
2023-05-15T01:46:21.218Z,59.54
2023-05-15T01:49:46.168Z,62.00
2023-05-15T01:53:10.641Z,60.22
2023-05-15T01:56:33.357Z,60.91
2023-05-15T01:59:56.565Z,60.19
2023-05-15T02:03:20.336Z,61.14
2023-05-15T02:06:42.491Z,61.16
2023-05-15T02:10:05.362Z,61.21
2023-05-15T02:13:28.130Z,61.05
2023-05-15T02:16:50.088Z,62.46
2023-05-15T02:20:14.461Z,62.90
2023-05-15T02:23:36.394Z,61.94
2023-05-15T02:27:05.342Z,63.02
2023-05-15T02:30:39.651Z,62.75
2023-05-15T02:34:09.661Z,62.18
2023-05-15T02:37:36.303Z,62.38
2023-05-15T02:40:59.413Z,62.60
2023-05-15T02:44:21.504Z,62.52
2023-05-15T02:47:44.088Z,63.31
2023-05-15T02:51:06.570Z,62.86
2023-05-15T02:54:29.712Z,63.22
2023-05-15T02:57:51.611Z,63.45
2023-05-15T03:01:13.713Z,63.99
2023-05-15T03:04:35.307Z,63.76
2023-05-15T03:07:58.508Z,64.68
2023-05-15T03:11:21.635Z,64.35
2023-05-15T03:14:43.547Z,63.95
2023-05-15T03:18:05.601Z,63.28
2023-05-15T03:21:27.398Z,62.82
2023-05-15T03:24:49.238Z,62.68
2023-05-15T03:28:12.808Z,62.10
2023-05-15T03:31:35.068Z,61.96
2023-05-15T03:34:56.668Z,61.70
2023-05-15T03:38:18.059Z,60.99
2023-05-15T03:41:40.073Z,60.93
2023-05-15T03:45:03.394Z,60.51
2023-05-15T03:48:25.534Z,60.37
2023-05-15T03:51:47.183Z,60.15
2023-05-15T03:55:09.627Z,59.54
2023-05-15T03:58:32.215Z,59.19
2023-05-15T04:02:04.362Z,58.95
2023-05-15T04:05:27.721Z,58.61
2023-05-15T04:08:50.493Z,58.40
2023-05-15T04:12:12.503Z,58.32
2023-05-15T04:15:34.163Z,58.19
2023-05-15T04:18:57.503Z,57.39
2023-05-15T04:22:19.382Z,57.09
2023-05-15T04:25:42.897Z,56.98
2023-05-15T04:29:05.224Z,56.40
2023-05-15T04:32:27.746Z,56.22
2023-05-15T04:35:50.974Z,55.84
2023-05-15T04:39:13.246Z,55.18
2023-05-15T04:42:35.184Z,55.17
2023-05-15T04:45:57.066Z,55.42
2023-05-15T04:49:18.951Z,55.49
2023-05-15T04:52:43.180Z,55.26
2023-05-15T04:56:05.765Z,54.87
2023-05-15T04:59:28.743Z,54.50
2023-05-15T05:02:51.104Z,54.04
2023-05-15T05:06:12.971Z,54.24
2023-05-15T05:09:36.218Z,53.72
2023-05-15T05:12:58.329Z,53.17
2023-05-15T05:16:20.394Z,53.16
2023-05-15T05:19:42.912Z,51.99
2023-05-15T05:23:04.880Z,51.79
2023-05-15T05:26:28.521Z,51.33
2023-05-15T05:29:50.541Z,50.95
2023-05-15T05:33:12.792Z,51.10
2023-05-15T05:36:34.541Z,50.05
2023-05-15T05:39:56.490Z,50.30
2023-05-15T05:43:20.946Z,49.52
2023-05-15T05:46:42.694Z,49.24
2023-05-15T05:50:04.713Z,49.25
2023-05-15T05:53:26.362Z,48.82
2023-05-15T05:56:50.096Z,48.86
2023-05-15T06:00:15.066Z,48.90
2023-05-15T06:03:37.765Z,48.81
2023-05-15T06:06:59.533Z,48.87
2023-05-15T06:10:21.988Z,48.00
2023-05-15T06:13:44.243Z,47.26
2023-05-15T06:17:07.548Z,47.79
2023-05-15T06:20:29.344Z,47.31
2023-05-15T06:23:51.045Z,47.74
2023-05-15T06:27:15.432Z,47.65
2023-05-15T06:30:37.114Z,47.19
2023-05-15T06:34:00.177Z,46.92
2023-05-15T06:37:22.283Z,46.57
2023-05-15T06:40:43.979Z,46.97
2023-05-15T06:44:06.124Z,46.03
2023-05-15T06:47:28.054Z,46.22
2023-05-15T06:50:51.628Z,46.59
2023-05-15T06:54:13.316Z,45.47
2023-05-15T06:57:35.138Z,45.23
2023-05-15T07:00:57.291Z,45.16
2023-05-15T07:04:21.170Z,44.82
2023-05-15T07:07:44.504Z,44.70
2023-05-15T07:11:06.654Z,44.05
2023-05-15T07:14:28.413Z,44.14
2023-05-15T07:17:50.187Z,43.89
2023-05-15T07:21:11.768Z,43.49
2023-05-15T07:24:34.849Z,43.43
2023-05-15T07:27:56.978Z,42.80
2023-05-15T07:31:19.090Z,42.25
2023-05-15T07:34:41.977Z,43.15
2023-05-15T07:38:03.898Z,43.17
2023-05-15T07:41:27.217Z,42.65
2023-05-15T07:44:49.683Z,42.44
2023-05-15T07:48:15.552Z,41.95
2023-05-15T07:51:37.463Z,41.66
2023-05-15T07:54:59.315Z,41.60
2023-05-15T07:58:23.392Z,42.50
2023-05-15T08:01:45.022Z,41.36
2023-05-15T08:05:07.730Z,41.77
2023-05-15T08:08:29.702Z,40.98
2023-05-15T08:11:51.729Z,39.95
2023-05-15T08:15:15.553Z,40.19
2023-05-15T08:18:37.598Z,40.63
2023-05-15T08:21:59.429Z,40.54
2023-05-15T08:25:21.103Z,39.62
2023-05-15T08:28:43.042Z,39.94
2023-05-15T08:32:07.972Z,39.33
2023-05-15T08:35:29.815Z,38.86
2023-05-15T08:38:51.503Z,40.06
2023-05-15T08:42:19.813Z,39.04
2023-05-15T08:45:42.064Z,39.36
2023-05-15T08:49:15.768Z,38.19
2023-05-15T08:52:37.709Z,38.66
2023-05-15T08:55:59.612Z,38.78
2023-05-15T08:59:21.683Z,38.04
2023-05-15T09:02:44.011Z,38.31
2023-05-15T09:06:08.232Z,38.35
2023-05-15T09:09:31.410Z,36.79
2023-05-15T09:12:54.823Z,37.49
2023-05-15T09:16:16.772Z,37.09
2023-05-15T09:19:40.613Z,36.08
2023-05-15T09:23:05.512Z,36.53
2023-05-15T09:26:27.253Z,35.52
2023-05-15T09:29:52.274Z,35.54
2023-05-15T09:33:18.297Z,35.43
2023-05-15T09:37:19.365Z,35.29
2023-05-15T09:40:53.802Z,30.84
2023-05-15T09:44:38.903Z,28.66
2023-05-15T09:48:15.173Z,26.82
2023-05-15T09:51:37.709Z,29.62
2023-05-15T09:54:59.829Z,29.21
2023-05-15T09:58:23.883Z,30.49
2023-05-15T10:01:48.932Z,30.46
2023-05-15T10:05:14.670Z,29.70
2023-05-15T10:08:38.231Z,30.58
2023-05-15T10:12:01.360Z,29.03
2023-05-15T10:15:25.258Z,29.29
2023-05-15T10:18:49.673Z,29.03
2023-05-15T10:22:12.686Z,29.25
2023-05-15T10:25:41.330Z,28.24
2023-05-15T10:29:06.339Z,28.98
2023-05-15T10:32:30.926Z,28.23
2023-05-15T10:35:54.805Z,28.88
2023-05-15T10:39:18.221Z,27.36
2023-05-15T10:42:43.528Z,29.01
2023-05-15T10:46:06.604Z,27.94
2023-05-15T10:49:29.653Z,27.46
2023-05-15T10:52:53.141Z,25.82
2023-05-15T10:56:16.828Z,26.89
2023-05-15T10:59:38.499Z,27.25
2023-05-15T11:03:01.315Z,27.82
2023-05-15T11:06:32.427Z,26.08
2023-05-15T11:09:54.896Z,26.78
2023-05-15T11:13:16.586Z,26.34
2023-05-15T11:16:59.679Z,25.28
2023-05-15T11:20:21.717Z,26.55
2023-05-15T11:23:48.658Z,26.33
2023-05-15T11:27:17.905Z,26.45
2023-05-15T11:30:41.423Z,27.17
2023-05-15T11:34:07.486Z,24.37
2023-05-15T11:37:31.391Z,25.58
2023-05-15T11:40:57.271Z,25.99
2023-05-15T11:44:22.872Z,26.08
2023-05-15T11:47:45.623Z,25.97
2023-05-15T11:51:16.230Z,25.52
2023-05-15T11:54:38.405Z,24.80
2023-05-15T11:58:01.816Z,24.91
2023-05-15T12:01:23.789Z,25.19
2023-05-15T12:04:45.577Z,25.51
2023-05-15T12:08:11.606Z,24.87
2023-05-15T12:11:33.668Z,24.75
2023-05-15T12:14:59.483Z,23.96
2023-05-15T12:18:21.371Z,25.53
2023-05-15T12:21:55.298Z,25.71
2023-05-15T12:25:17.939Z,25.63
2023-05-15T12:28:40.010Z,24.79
2023-05-15T12:32:04.195Z,24.30
2023-05-15T12:35:25.973Z,24.39
2023-05-15T12:38:47.887Z,24.41
2023-05-15T12:42:10.738Z,24.63
2023-05-15T12:45:33.515Z,23.44
2023-05-15T12:48:59.619Z,24.38
2023-05-15T12:52:23.580Z,23.86
2023-05-15T12:55:47.652Z,24.10
2023-05-15T12:59:09.209Z,23.99
2023-05-15T13:02:33.519Z,24.16
2023-05-15T13:05:56.979Z,23.56
2023-05-15T13:09:23.461Z,23.87
2023-05-15T13:12:46.799Z,24.37
2023-05-15T13:16:19.583Z,22.97
2023-05-15T13:19:41.491Z,23.99
2023-05-15T13:23:05.354Z,23.75
2023-05-15T13:26:27.633Z,24.15
2023-05-15T13:29:51.890Z,24.44
2023-05-15T13:33:14.878Z,24.63
2023-05-15T13:36:36.890Z,24.51
2023-05-15T13:40:00.093Z,24.52
2023-05-15T13:43:23.183Z,23.86
2023-05-15T13:46:46.390Z,24.78
2023-05-15T13:50:10.087Z,24.93
2023-05-15T13:53:31.864Z,24.43
2023-05-15T13:56:55.079Z,25.03
2023-05-15T14:00:18.781Z,24.37
2023-05-15T14:03:40.829Z,24.11
2023-05-15T14:07:02.384Z,25.04
2023-05-15T14:10:24.578Z,24.66
2023-05-15T14:13:48.195Z,24.54
2023-05-15T14:17:10.118Z,24.25
2023-05-15T14:20:31.970Z,25.12
2023-05-15T14:23:53.920Z,25.12
2023-05-15T14:27:18.377Z,25.07
2023-05-15T14:30:41.611Z,25.45
2023-05-15T14:34:03.344Z,25.83
2023-05-15T14:37:25.128Z,25.45
2023-05-15T14:40:47.271Z,25.40
2023-05-15T14:44:08.843Z,25.95
2023-05-15T14:47:36.414Z,26.62
2023-05-15T14:51:00.164Z,26.36
2023-05-15T14:54:23.825Z,26.32
2023-05-15T14:57:50.761Z,26.78
2023-05-15T15:01:13.539Z,26.62
2023-05-15T15:04:41.692Z,26.30
2023-05-15T15:08:08.037Z,26.75
2023-05-15T15:11:33.036Z,26.23
2023-05-15T15:14:59.060Z,26.51
2023-05-15T15:18:22.496Z,26.16
2023-05-15T15:21:48.275Z,26.28
2023-05-15T15:25:11.848Z,26.63
2023-05-15T15:28:35.425Z,26.63
2023-05-15T15:32:05.401Z,26.52
2023-05-15T15:35:31.163Z,27.08
2023-05-15T15:38:56.165Z,27.08
2023-05-15T15:42:19.335Z,26.96
2023-05-15T15:45:42.472Z,27.41
2023-05-15T15:49:09.654Z,28.55
2023-05-15T15:52:34.361Z,29.34
2023-05-15T15:55:58.441Z,29.26
2023-05-15T15:59:22.848Z,29.54
2023-05-15T16:02:47.968Z,29.58
2023-05-15T16:06:15.101Z,30.05
2023-05-15T16:09:38.064Z,30.11
2023-05-15T16:13:01.946Z,30.37
2023-05-15T16:16:25.263Z,30.61
2023-05-15T16:19:48.256Z,31.13
2023-05-15T16:23:11.876Z,31.21
2023-05-15T16:26:34.335Z,31.82
2023-05-15T16:29:57.645Z,31.98
2023-05-15T16:33:20.003Z,32.63
2023-05-15T16:36:42.332Z,32.36
2023-05-15T16:40:04.956Z,32.62
2023-05-15T16:43:26.706Z,32.83
2023-05-15T16:46:49.932Z,33.12
2023-05-15T16:50:13.309Z,32.99
2023-05-15T16:53:35.260Z,33.32
2023-05-15T16:56:59.309Z,33.61
2023-05-15T17:00:21.806Z,33.30
2023-05-15T17:03:45.322Z,34.05
2023-05-15T17:07:07.673Z,34.14
2023-05-15T17:10:32.351Z,33.96
2023-05-15T17:13:54.127Z,34.58
2023-05-15T17:17:15.885Z,34.81
2023-05-15T17:20:39.197Z,34.77
2023-05-15T17:24:01.253Z,35.00
2023-05-15T17:27:25.016Z,35.04
2023-05-15T17:30:51.755Z,35.18
2023-05-15T17:34:15.428Z,34.86
2023-05-15T17:37:41.580Z,35.20
2023-05-15T17:41:04.936Z,35.58
2023-05-15T17:44:29.817Z,35.71
2023-05-15T17:47:52.502Z,36.62
2023-05-15T17:51:14.470Z,36.75
2023-05-15T17:54:37.851Z,36.69
2023-05-15T17:58:00.191Z,36.71
2023-05-15T18:01:22.302Z,36.91
2023-05-15T18:04:44.379Z,37.22
2023-05-15T18:08:06.978Z,37.43
2023-05-15T18:11:30.196Z,37.34
2023-05-15T18:14:52.401Z,37.96
2023-05-15T18:18:14.696Z,38.06
2023-05-15T18:21:38.003Z,37.96
2023-05-15T18:25:01.007Z,38.26
2023-05-15T18:28:24.064Z,38.24
2023-05-15T18:31:46.160Z,38.32
2023-05-15T18:35:08.571Z,38.30
2023-05-15T18:38:30.411Z,38.44
2023-05-15T18:41:52.663Z,38.54
2023-05-15T18:45:16.363Z,38.64
2023-05-15T18:48:37.990Z,38.88
2023-05-15T18:52:00.198Z,38.70
2023-05-15T18:55:22.859Z,38.96
2023-05-15T18:58:45.764Z,38.96
2023-05-15T19:02:10.372Z,39.33
2023-05-15T19:05:33.792Z,39.34
2023-05-15T19:08:55.762Z,39.23
2023-05-15T19:12:17.762Z,39.56
2023-05-15T19:15:39.562Z,39.57
2023-05-15T19:19:02.814Z,40.06
2023-05-15T19:22:24.787Z,40.30
2023-05-15T19:25:46.863Z,41.15
2023-05-15T19:29:08.637Z,41.16
2023-05-15T19:32:30.534Z,41.66
2023-05-15T19:35:53.734Z,42.24
2023-05-15T19:39:15.847Z,42.33
2023-05-15T19:42:37.694Z,42.70
2023-05-15T19:45:59.414Z,42.95
2023-05-15T19:49:21.394Z,43.28
2023-05-15T19:52:45.360Z,44.70
2023-05-15T19:56:07.838Z,43.85
2023-05-15T19:59:30.096Z,43.78
2023-05-15T20:02:51.990Z,43.97
2023-05-15T20:06:13.890Z,44.69
2023-05-15T20:09:39.317Z,44.35
2023-05-15T20:13:01.336Z,44.61
2023-05-15T20:16:23.070Z,44.60
2023-05-15T20:19:45.063Z,44.66
2023-05-15T20:23:07.474Z,44.80
2023-05-15T20:26:30.645Z,45.48
2023-05-15T20:29:52.484Z,45.24
2023-05-15T20:33:14.692Z,45.41
2023-05-15T20:36:38.969Z,45.15
2023-05-15T20:40:01.059Z,46.79
2023-05-15T20:48:11.793Z,45.85
2023-05-15T20:51:33.638Z,46.07
2023-05-15T20:54:55.545Z,47.27
2023-05-15T20:58:17.287Z,46.62
2023-05-15T21:01:39.320Z,47.00
2023-05-15T21:05:02.369Z,47.99
2023-05-15T21:08:24.401Z,48.02
2023-05-15T21:11:47.318Z,48.08
2023-05-15T21:15:11.292Z,48.29
2023-05-15T21:18:34.214Z,47.76
2023-05-15T21:21:57.428Z,48.05
2023-05-15T21:25:20.109Z,48.25
2023-05-15T21:28:41.804Z,48.28
2023-05-15T21:32:03.550Z,48.63
2023-05-15T21:35:25.706Z,49.02
2023-05-15T21:38:48.851Z,49.28
2023-05-15T21:42:10.900Z,49.04
2023-05-15T21:45:33.151Z,48.88
2023-05-15T21:48:54.695Z,48.76
2023-05-15T21:52:16.380Z,49.52
2023-05-15T21:55:39.984Z,49.01
2023-05-15T21:59:01.893Z,49.73
2023-05-15T22:02:23.783Z,49.42
2023-05-15T22:05:46.750Z,49.29
2023-05-15T22:09:08.805Z,49.33
2023-05-15T22:12:32.315Z,49.94
2023-05-15T22:15:54.288Z,49.41
2023-05-15T22:19:25.053Z,50.19
2023-05-15T22:22:53.664Z,49.68
2023-05-15T22:26:15.765Z,50.44
2023-05-15T22:29:38.880Z,49.72
2023-05-15T22:33:00.831Z,50.12
2023-05-15T22:36:22.597Z,49.91
2023-05-15T22:39:44.120Z,49.67
2023-05-15T22:43:05.920Z,50.26
2023-05-15T22:46:29.257Z,50.09
2023-05-15T22:49:51.509Z,50.12
2023-05-15T22:53:16.790Z,50.25
2023-05-15T22:56:38.541Z,50.55
2023-05-15T23:00:00.183Z,50.41
2023-05-15T23:03:23.394Z,50.39
2023-05-15T23:06:45.240Z,50.80
2023-05-15T23:10:08.403Z,50.48
2023-05-15T23:13:30.588Z,50.98
2023-05-15T23:16:52.280Z,50.98
2023-05-15T23:20:15.848Z,50.92
2023-05-15T23:23:37.477Z,51.21
2023-05-15T23:26:59.405Z,50.90
2023-05-15T23:30:21.583Z,50.98
2023-05-15T23:33:43.532Z,51.09
2023-05-15T23:37:07.068Z,51.25
2023-05-15T23:40:28.937Z,51.22
2023-05-15T23:43:51.038Z,50.76
2023-05-15T23:47:12.839Z,51.47
2023-05-15T23:50:34.712Z,51.18
2023-05-15T23:53:57.945Z,51.15
2023-05-15T23:57:19.968Z,51.26
